Time;durP1;ratioP1;P1;durP2;ratioP2;P2;SDS_P1;SDS_P2;PMS_P1;PMS_P2;Temp;Humidity;BMP_temperature;BMP_pressure;BME280_temperature;BME280_humidity;BME280_pressure;Samples;Min_cycle;Max_cycle;Signal;HPM_P1;HPM_P2
2020/12/19 00:01:30;;;;;;;1999.90;999.90;;;7.40;99.90;;;;;;5102021;28;20060;-91
2020/12/19 00:03:57;;;;;;;1999.90;999.90;;;7.40;99.90;;;;;;5113272;28;20135;-91
2020/12/19 00:06:25;;;;;;;1999.90;999.90;;;7.40;99.90;;;;;;5114307;28;20122;-90
2020/12/19 00:08:52;;;;;;;1999.90;999.90;;;7.40;99.90;;;;;;5113797;28;20138;-91
2020/12/19 00:11:19;;;;;;;1999.90;999.90;;;7.40;99.90;;;;;;5114955;28;20122;-91
2020/12/19 00:13:46;;;;;;;1999.90;999.90;;;7.30;99.90;;;;;;5114715;28;20059;-91
2020/12/19 00:16:18;;;;;;;1999.90;999.90;;;7.30;99.90;;;;;;5113992;28;20067;-91
2020/12/19 00:18:46;;;;;;;1999.90;999.90;;;7.30;99.90;;;;;;5114732;28;20087;-91
2020/12/19 00:21:13;;;;;;;1999.90;999.90;;;7.30;99.90;;;;;;5114106;28;20100;-91
2020/12/19 00:23:40;;;;;;;1999.90;999.90;;;7.30;99.90;;;;;;5114608;28;20518;-91
2020/12/19 00:26:07;;;;;;;1999.90;999.90;;;7.30;99.90;;;;;;5112731;28;20530;-91
2020/12/19 00:28:34;;;;;;;1999.90;999.90;;;7.20;99.90;;;;;;5114657;28;20059;-91
2020/12/19 00:31:01;;;;;;;1999.90;999.90;;;7.20;99.90;;;;;;5114142;28;20052;-91
2020/12/19 00:33:29;;;;;;;1999.90;999.90;;;7.20;99.90;;;;;;5113440;28;20098;-90
2020/12/19 00:35:56;;;;;;;1999.90;999.90;;;7.20;99.90;;;;;;5110382;28;20100;-91
2020/12/19 00:38:23;;;;;;;1999.90;999.90;;;7.20;99.90;;;;;;5114394;28;20051;-91
2020/12/19 00:40:57;;;;;;;1999.90;999.90;;;7.20;99.90;;;;;;5114224;28;20043;-91
2020/12/19 00:43:24;;;;;;;1999.90;999.90;;;7.20;99.90;;;;;;5113655;28;20051;-91
2020/12/19 00:45:51;;;;;;;1999.90;999.90;;;7.10;99.90;;;;;;5113988;28;20543;-91
2020/12/19 00:48:18;;;;;;;1999.90;999.90;;;7.20;99.90;;;;;;5107647;28;20158;-91
2020/12/19 00:50:46;;;;;;;1999.90;999.90;;;7.20;99.90;;;;;;5105835;28;20059;-91
2020/12/19 00:53:13;;;;;;;1999.90;999.90;;;7.10;99.90;;;;;;5113656;28;20059;-91
2020/12/19 00:55:40;;;;;;;1999.90;999.90;;;7.10;99.90;;;;;;5111659;28;20062;-91
2020/12/19 00:58:07;;;;;;;1999.90;999.90;;;7.10;99.90;;;;;;5110662;28;20607;-91
2020/12/19 01:00:35;;;;;;;1999.90;999.90;;;7.10;99.90;;;;;;5110782;28;20130;-91
2020/12/19 01:03:02;;;;;;;1999.90;999.90;;;7.10;99.90;;;;;;5111827;28;20119;-91
2020/12/19 01:05:29;;;;;;;1999.90;999.90;;;7.10;99.90;;;;;;5111381;28;20134;-91
2020/12/19 01:07:58;;;;;;;1999.90;999.90;;;7.10;99.90;;;;;;5111700;28;20048;-91
2020/12/19 01:10:25;;;;;;;1999.90;999.90;;;7.10;99.90;;;;;;5112950;28;20104;-91
2020/12/19 01:12:52;;;;;;;1999.90;999.90;;;7.00;99.90;;;;;;5113840;28;20083;-91
2020/12/19 01:15:19;;;;;;;1999.90;999.90;;;7.00;99.90;;;;;;5112743;28;20506;-91
2020/12/19 01:17:46;;;;;;;1999.90;999.90;;;7.00;99.90;;;;;;5113510;28;20702;-91
2020/12/19 01:20:13;;;;;;;1999.90;999.90;;;7.00;99.90;;;;;;5113544;28;20171;-91
2020/12/19 01:22:40;;;;;;;1999.90;999.90;;;7.00;99.90;;;;;;5113738;28;20131;-91
2020/12/19 01:25:09;;;;;;;1999.90;999.90;;;7.00;99.90;;;;;;5113230;28;20052;-91
2020/12/19 01:27:36;;;;;;;1999.90;999.90;;;7.00;99.90;;;;;;5112234;28;20051;-91
2020/12/19 01:30:03;;;;;;;1999.90;999.90;;;7.00;99.90;;;;;;5113100;28;20055;-92
2020/12/19 01:32:31;;;;;;;1999.90;999.90;;;7.00;99.90;;;;;;5113776;28;20100;-92
2020/12/19 01:34:58;;;;;;;1999.90;999.90;;;7.00;99.90;;;;;;5113400;28;20052;-91
2020/12/19 01:37:25;;;;;;;1999.90;999.90;;;7.00;99.90;;;;;;5113067;28;20067;-91
2020/12/19 01:39:52;;;;;;;1999.90;999.90;;;6.90;99.90;;;;;;5106633;28;20055;-91
2020/12/19 01:42:20;;;;;;;1999.90;999.90;;;6.90;99.90;;;;;;5105933;28;20146;-91
2020/12/19 01:44:47;;;;;;;1999.90;999.90;;;6.90;99.90;;;;;;5112908;28;20120;-90
2020/12/19 01:47:18;;;;;;;1999.90;999.90;;;6.90;99.90;;;;;;5113466;28;20059;-91
2020/12/19 01:49:45;;;;;;;1999.90;999.90;;;6.90;99.90;;;;;;5111416;28;20450;-91
2020/12/19 01:52:12;;;;;;;1999.90;999.90;;;6.90;99.90;;;;;;5113470;28;20691;-92
2020/12/19 01:54:40;;;;;;;1999.90;999.90;;;6.90;99.90;;;;;;5113270;28;20130;-91
2020/12/19 01:57:12;;;;;;;1999.90;999.90;;;6.90;99.90;;;;;;5112847;28;20050;-91
2020/12/19 01:59:40;;;;;;;1999.90;999.90;;;6.80;99.90;;;;;;5113704;28;20151;-92
2020/12/19 02:02:08;;;;;;;1999.90;999.90;;;6.90;99.90;;;;;;5113224;28;20043;-92
2020/12/19 02:04:36;;;;;;;1999.90;999.90;;;6.80;99.90;;;;;;5113324;28;20047;-91
2020/12/19 02:07:05;;;;;;;1999.90;999.90;;;6.80;99.90;;;;;;5113025;28;20069;-91
2020/12/19 02:09:36;;;;;;;1999.90;999.90;;;6.90;99.90;;;;;;5112192;28;20128;-92
2020/12/19 02:12:04;;;;;;;1999.90;999.90;;;6.80;99.90;;;;;;5113107;28;20055;-91
2020/12/19 02:14:31;;;;;;;1999.90;999.90;;;6.80;99.90;;;;;;5111621;28;20147;-91
2020/12/19 02:17:01;;;;;;;1999.90;999.90;;;6.80;99.90;;;;;;5111763;28;20100;-91
2020/12/19 02:19:29;;;;;;;1999.90;999.90;;;6.80;99.90;;;;;;5112468;28;20395;-90
2020/12/19 02:21:56;;;;;;;1999.90;999.90;;;6.80;99.90;;;;;;5112772;28;20097;-90
2020/12/19 02:24:24;;;;;;;1999.90;999.90;;;6.80;99.90;;;;;;5112243;28;20079;-90
2020/12/19 02:26:52;;;;;;;1999.90;999.90;;;6.80;99.90;;;;;;5112845;28;20043;-90
2020/12/19 02:29:21;;;;;;;1999.90;999.90;;;6.80;99.90;;;;;;5112522;28;20062;-91
2020/12/19 02:31:48;;;;;;;1999.90;999.90;;;6.80;99.90;;;;;;5112668;28;20130;-91
2020/12/19 02:34:16;;;;;;;1999.90;999.90;;;6.70;99.90;;;;;;5112581;28;20043;-92
2020/12/19 02:36:43;;;;;;;1999.90;999.90;;;6.70;99.90;;;;;;5111795;28;20043;-88
2020/12/19 02:39:11;;;;;;;1999.90;999.90;;;6.70;99.90;;;;;;5114666;28;20361;-89
2020/12/19 02:41:40;;;;;;;1999.90;999.90;;;6.70;99.90;;;;;;5115286;28;20056;-89
2020/12/19 02:44:09;;;;;;;1999.90;999.90;;;6.70;99.90;;;;;;5115303;28;20051;-89
2020/12/19 02:46:36;;;;;;;1999.90;999.90;;;6.70;99.90;;;;;;5115387;28;20047;-88
2020/12/19 02:49:03;;;;;;;1999.90;999.90;;;6.70;99.90;;;;;;5116226;28;20043;-89
2020/12/19 02:51:30;;;;;;;1999.90;999.90;;;6.70;99.90;;;;;;5115840;28;20079;-89
2020/12/19 02:53:57;;;;;;;1999.90;999.90;;;6.70;99.90;;;;;;5115854;28;20105;-89
2020/12/19 02:56:24;;;;;;;1999.90;999.90;;;6.70;99.90;;;;;;5111384;28;20539;-88
2020/12/19 02:58:52;;;;;;;1999.90;999.90;;;6.60;99.90;;;;;;5115491;28;20051;-89
2020/12/19 03:01:20;;;;;;;1999.90;999.90;;;6.60;99.90;;;;;;5115698;28;20047;-89
2020/12/19 03:03:47;;;;;;;1999.90;999.90;;;6.60;99.90;;;;;;5116162;28;20187;-89
2020/12/19 03:06:29;;;;;;;1999.90;999.90;;;6.60;99.90;;;;;;5101413;28;20048;-88
2020/12/19 03:08:56;;;;;;;1999.90;999.90;;;6.60;99.90;;;;;;5115194;28;20170;-89
2020/12/19 03:11:23;;;;;;;1999.90;999.90;;;6.60;99.90;;;;;;5115348;28;20051;-89
2020/12/19 03:13:51;;;;;;;1999.90;999.90;;;6.60;99.90;;;;;;5115941;28;20052;-89
2020/12/19 03:16:18;;;;;;;1999.90;999.90;;;6.60;99.90;;;;;;5114548;28;20043;-89
2020/12/19 03:18:45;;;;;;;1999.90;999.90;;;6.60;99.90;;;;;;5115427;28;20142;-89
2020/12/19 03:21:12;;;;;;;1999.90;999.90;;;6.60;99.90;;;;;;5115529;28;20067;-88
2020/12/19 03:23:39;;;;;;;1999.90;999.90;;;6.60;99.90;;;;;;5115322;28;20051;-89
2020/12/19 03:26:07;;;;;;;1999.90;999.90;;;6.60;99.90;;;;;;5115585;28;20471;-89
2020/12/19 03:28:33;;;;;;;1999.90;999.90;;;6.60;99.90;;;;;;5102424;28;20097;-88
2020/12/19 03:31:02;;;;;;;1999.90;999.90;;;6.50;99.90;;;;;;5115734;28;20479;-89
2020/12/19 03:33:29;;;;;;;1999.90;999.90;;;6.60;99.90;;;;;;5102340;28;20048;-89
2020/12/19 03:35:56;;;;;;;1999.90;999.90;;;6.60;99.90;;;;;;5115289;28;20059;-89
2020/12/19 03:38:23;;;;;;;1999.90;999.90;;;6.60;99.90;;;;;;5102115;28;20071;-88
2020/12/19 03:40:50;;;;;;;1999.90;999.90;;;6.60;99.90;;;;;;5115757;28;20051;-89
2020/12/19 03:43:17;;;;;;;1999.90;999.90;;;6.60;99.90;;;;;;5115341;28;20044;-89
2020/12/19 03:45:44;;;;;;;1999.90;999.90;;;6.60;99.90;;;;;;5114335;28;20089;-89
2020/12/19 03:48:12;;;;;;;1999.90;999.90;;;6.60;99.90;;;;;;5115787;28;20078;-88
2020/12/19 03:50:39;;;;;;;1999.90;999.90;;;6.60;99.90;;;;;;5113602;28;20052;-89
2020/12/19 03:53:06;;;;;;;1999.90;999.90;;;6.60;99.90;;;;;;5114914;28;20112;-89
2020/12/19 03:55:33;;;;;;;1999.90;999.90;;;6.60;99.90;;;;;;5114495;28;20124;-89
2020/12/19 03:58:00;;;;;;;1999.90;999.90;;;6.60;99.90;;;;;;5114795;28;20040;-89
2020/12/19 04:00:27;;;;;;;1999.90;999.90;;;6.50;99.90;;;;;;5113008;28;20059;-89
2020/12/19 04:02:55;;;;;;;1999.90;999.90;;;6.60;99.90;;;;;;5114591;28;20108;-89
2020/12/19 04:05:22;;;;;;;1999.90;999.90;;;6.60;99.90;;;;;;5114830;28;20061;-89
2020/12/19 04:07:49;;;;;;;1999.90;999.90;;;6.60;99.90;;;;;;5111163;28;20551;-89
2020/12/19 04:10:17;;;;;;;1999.90;999.90;;;6.60;99.90;;;;;;5114809;28;20074;-89
2020/12/19 04:12:44;;;;;;;1999.90;999.90;;;6.60;99.90;;;;;;5113833;28;20052;-89
2020/12/19 04:15:12;;;;;;;1999.90;999.90;;;6.60;99.90;;;;;;5113636;28;20146;-89
2020/12/19 04:17:39;;;;;;;1999.90;999.90;;;6.60;99.90;;;;;;5114078;28;20043;-89
2020/12/19 04:20:08;;;;;;;1999.90;999.90;;;6.60;99.90;;;;;;5114161;28;20078;-89
2020/12/19 04:22:36;;;;;;;1999.90;999.90;;;6.60;99.90;;;;;;5113316;28;20079;-88
2020/12/19 04:25:04;;;;;;;1999.90;999.90;;;6.60;99.90;;;;;;5114124;28;20068;-89
2020/12/19 04:27:31;;;;;;;1999.90;999.90;;;6.70;99.90;;;;;;5114212;28;20130;-89
2020/12/19 04:29:58;;;;;;;1999.90;999.90;;;6.70;99.90;;;;;;5110903;28;20070;-88
2020/12/19 04:32:25;;;;;;;1999.90;999.90;;;6.70;99.90;;;;;;5114359;28;20052;-89
2020/12/19 04:34:52;;;;;;;1999.90;999.90;;;6.70;99.90;;;;;;5113082;28;20127;-88
2020/12/19 04:37:24;;;;;;;1999.90;999.90;;;6.70;99.90;;;;;;5113776;28;20047;-88
2020/12/19 04:39:52;;;;;;;1999.90;999.90;;;6.70;99.90;;;;;;5114086;28;20051;-89
2020/12/19 04:42:20;;;;;;;1999.90;999.90;;;6.70;99.90;;;;;;5104007;28;20093;-89
2020/12/19 04:44:48;;;;;;;1999.90;999.90;;;6.70;99.90;;;;;;5114384;28;20090;-89
2020/12/19 04:47:15;;;;;;;1999.90;999.90;;;6.70;99.90;;;;;;5113678;28;20047;-88
2020/12/19 04:49:43;;;;;;;1999.90;999.90;;;6.80;99.90;;;;;;5113867;28;20130;-88
2020/12/19 04:52:10;;;;;;;1999.90;999.90;;;6.80;99.90;;;;;;5113421;28;20084;-88
2020/12/19 04:54:38;;;;;;;1999.90;999.90;;;6.80;99.90;;;;;;5106007;28;20075;-89
2020/12/19 04:57:06;;;;;;;1999.90;999.90;;;6.80;99.90;;;;;;5113462;28;20066;-88
2020/12/19 04:59:33;;;;;;;1999.90;999.90;;;6.80;99.90;;;;;;5099322;28;20167;-88
2020/12/19 05:02:00;;;;;;;1999.90;999.90;;;6.80;99.90;;;;;;5113117;28;20051;-88
2020/12/19 05:04:27;;;;;;;1999.90;999.90;;;6.80;99.90;;;;;;5114565;28;20052;-88
2020/12/19 05:06:55;;;;;;;1999.90;999.90;;;6.80;99.90;;;;;;5115307;28;20065;-89
2020/12/19 05:09:22;;;;;;;1999.90;999.90;;;6.80;99.90;;;;;;5114178;28;20434;-89
2020/12/19 05:11:49;;;;;;;1999.90;999.90;;;6.80;99.90;;;;;;5113633;28;20083;-89
2020/12/19 05:14:19;;;;;;;1999.90;999.90;;;6.80;99.90;;;;;;5107382;28;20051;-89
2020/12/19 05:16:47;;;;;;;1999.90;999.90;;;6.80;99.90;;;;;;5098607;28;20115;-89
2020/12/19 05:19:14;;;;;;;1999.90;999.90;;;6.80;99.90;;;;;;5112919;28;20108;-89
2020/12/19 05:21:45;;;;;;;1999.90;999.90;;;6.80;99.90;;;;;;5114001;28;20078;-89
2020/12/19 05:24:15;;;;;;;1999.90;999.90;;;6.80;99.90;;;;;;5099265;28;20134;-88
2020/12/19 05:26:44;;;;;;;1999.90;999.90;;;6.80;99.90;;;;;;5101887;28;20422;-87
2020/12/19 05:29:11;;;;;;;1999.90;999.90;;;6.80;99.90;;;;;;5112997;28;20062;-88
2020/12/19 05:31:39;;;;;;;1999.90;999.90;;;6.80;99.90;;;;;;5113153;28;20126;-88
2020/12/19 05:34:06;;;;;;;1999.90;999.90;;;6.80;99.90;;;;;;5112869;28;20048;-88
2020/12/19 05:36:37;;;;;;;1999.90;999.90;;;6.80;99.90;;;;;;5112316;28;20100;-88
2020/12/19 05:39:06;;;;;;;1999.90;999.90;;;6.80;99.90;;;;;;5112614;28;20060;-89
2020/12/19 05:41:37;;;;;;;1999.90;999.90;;;6.80;99.90;;;;;;5112386;28;20104;-88
2020/12/19 05:44:05;;;;;;;1999.90;999.90;;;6.80;99.90;;;;;;5113822;28;20048;-88
2020/12/19 05:46:33;;;;;;;1999.90;999.90;;;6.80;99.90;;;;;;5112834;28;20454;-88
2020/12/19 05:49:03;;;;;;;1999.90;999.90;;;6.80;99.90;;;;;;5113111;28;20043;-88
2020/12/19 05:51:33;;;;;;;1999.90;999.90;;;6.80;99.90;;;;;;5112837;28;20155;-88
2020/12/19 05:54:03;;;;;;;1999.90;999.90;;;6.80;99.90;;;;;;5112334;28;20126;-88
2020/12/19 05:56:33;;;;;;;1999.90;999.90;;;6.80;99.90;;;;;;5112999;28;20052;-88
2020/12/19 05:59:03;;;;;;;1999.90;999.90;;;6.80;99.90;;;;;;5112701;28;20079;-89
2020/12/19 06:01:31;;;;;;;1999.90;999.90;;;6.80;99.90;;;;;;5112961;28;20075;-89
2020/12/19 06:04:06;;;;;;;1999.90;999.90;;;6.80;99.90;;;;;;5113461;28;20071;-89
2020/12/19 06:06:37;;;;;;;1999.90;999.90;;;6.80;99.90;;;;;;5102117;28;20090;-89
2020/12/19 06:09:04;;;;;;;1999.90;999.90;;;6.80;99.90;;;;;;5112776;28;20056;-88
2020/12/19 06:11:38;;;;;;;1999.90;999.90;;;6.80;99.90;;;;;;5101265;28;20108;-89
2020/12/19 06:14:09;;;;;;;1999.90;999.90;;;6.80;99.90;;;;;;5113844;28;20138;-88
2020/12/19 06:16:40;;;;;;;1999.90;999.90;;;6.80;99.90;;;;;;5106118;28;20097;-89
2020/12/19 06:19:20;;;;;;;1999.90;999.90;;;6.80;99.90;;;;;;5116488;28;20047;-89
2020/12/19 06:21:52;;;;;;;1999.90;999.90;;;6.90;99.90;;;;;;5117268;28;20083;-89
2020/12/19 06:24:42;;;;;;;1999.90;999.90;;;6.90;99.90;;;;;;5116266;28;20103;-89
2020/12/19 06:27:12;;;;;;;1999.90;999.90;;;6.90;99.90;;;;;;5110336;28;20147;-89
2020/12/19 06:29:39;;;;;;;1999.90;999.90;;;6.90;99.90;;;;;;5115502;28;20062;-88
2020/12/19 06:32:07;;;;;;;1999.90;999.90;;;6.90;99.90;;;;;;5116519;28;20043;-88
2020/12/19 06:34:35;;;;;;;1999.90;999.90;;;6.90;99.90;;;;;;5112962;28;20188;-88
2020/12/19 06:37:06;;;;;;;1999.90;999.90;;;6.90;99.90;;;;;;5115884;28;20379;-89
2020/12/19 06:39:33;;;;;;;1999.90;999.90;;;7.00;99.90;;;;;;5112260;28;20052;-89
2020/12/19 06:42:00;;;;;;;1999.90;999.90;;;6.90;99.90;;;;;;5116692;28;20075;-89
2020/12/19 06:44:29;;;;;;;1999.90;999.90;;;6.90;99.90;;;;;;5115998;28;20075;-89
2020/12/19 06:46:58;;;;;;;1999.90;999.90;;;6.90;99.90;;;;;;5115218;28;20105;-88
2020/12/19 06:49:51;;;;;;;1999.90;999.90;;;6.90;99.90;;;;;;5115452;28;20106;-89
2020/12/19 06:52:22;;;;;;;1999.90;999.90;;;6.90;99.90;;;;;;5110437;28;20047;-88
2020/12/19 06:54:51;;;;;;;1999.90;999.90;;;6.90;99.90;;;;;;5105110;28;20052;-89
2020/12/19 06:57:23;;;;;;;1999.90;999.90;;;6.90;99.90;;;;;;5115367;28;20052;-88
2020/12/19 06:59:50;;;;;;;1999.90;999.90;;;6.90;99.90;;;;;;5115922;28;20055;-88
2020/12/19 07:02:20;;;;;;;1999.90;999.90;;;7.00;99.90;;;;;;5115468;28;20076;-88
2020/12/19 07:04:49;;;;;;;1999.90;999.90;;;7.00;99.90;;;;;;5107318;28;20095;-89
2020/12/19 07:07:24;;;;;;;1999.90;999.90;;;7.00;99.90;;;;;;5110212;28;20082;-89
2020/12/19 07:09:59;;;;;;;1999.90;999.90;;;7.00;99.90;;;;;;5115995;28;20043;-88
2020/12/19 07:12:34;;;;;;;1999.90;999.90;;;7.00;99.90;;;;;;5114947;28;20467;-89
2020/12/19 07:15:01;;;;;;;1999.90;999.90;;;7.00;99.90;;;;;;5110099;28;20043;-89
2020/12/19 07:17:28;;;;;;;1999.90;999.90;;;7.00;99.90;;;;;;5114930;28;20214;-89
2020/12/19 07:20:00;;;;;;;1999.90;999.90;;;7.00;99.90;;;;;;5107023;28;20114;-89
2020/12/19 07:22:28;;;;;;;1999.90;999.90;;;7.00;99.90;;;;;;5111107;28;20164;-89
2020/12/19 07:24:56;;;;;;;1999.90;999.90;;;7.10;99.90;;;;;;5114492;28;20083;-88
2020/12/19 07:27:23;;;;;;;1999.90;999.90;;;7.10;99.90;;;;;;5115119;28;20047;-88
2020/12/19 07:29:57;;;;;;;1999.90;999.90;;;7.10;99.90;;;;;;5115384;28;20139;-89
2020/12/19 07:32:25;;;;;;;1999.90;999.90;;;7.20;99.90;;;;;;5114747;28;20058;-89
2020/12/19 07:34:53;;;;;;;1999.90;999.90;;;7.20;99.90;;;;;;5114351;28;20147;-89
2020/12/19 07:37:21;;;;;;;1999.90;999.90;;;7.20;99.90;;;;;;5111913;28;20063;-89
2020/12/19 07:39:48;;;;;;;1999.90;999.90;;;7.20;99.90;;;;;;5115057;28;20130;-89
2020/12/19 07:42:16;;;;;;;1999.90;999.90;;;7.30;99.90;;;;;;5114738;28;20044;-89
2020/12/19 07:44:45;;;;;;;1999.90;999.90;;;7.20;99.90;;;;;;5111473;28;20083;-88
2020/12/19 07:47:13;;;;;;;1999.90;999.90;;;7.30;99.90;;;;;;5104008;28;20551;-89
2020/12/19 07:49:45;;;;;;;1999.90;999.90;;;7.30;99.90;;;;;;5114332;28;20506;-89
2020/12/19 07:52:18;;;;;;;1999.90;999.90;;;7.30;99.90;;;;;;5114548;28;20047;-88
2020/12/19 07:54:54;;;;;;;1999.90;999.90;;;7.40;99.90;;;;;;5114589;28;20055;-89
2020/12/19 07:57:22;;;;;;;1999.90;999.90;;;7.40;99.90;;;;;;5111502;28;20052;-89
2020/12/19 07:59:49;;;;;;;1999.90;999.90;;;7.40;99.90;;;;;;5115029;28;20070;-88
2020/12/19 08:02:17;;;;;;;1999.90;999.90;;;7.40;99.90;;;;;;5113724;28;20047;-88
2020/12/19 08:04:55;;;;;;;1999.90;999.90;;;7.50;99.90;;;;;;5114354;28;20083;-88
2020/12/19 08:07:24;;;;;;;1999.90;999.90;;;7.50;99.90;;;;;;5114363;28;20438;-89
2020/12/19 08:10:00;;;;;;;1999.90;999.90;;;7.50;99.90;;;;;;5114681;28;20112;-89
2020/12/19 08:12:28;;;;;;;1999.90;999.90;;;7.50;99.90;;;;;;5114097;28;20051;-89
2020/12/19 08:14:55;;;;;;;1999.90;999.90;;;7.50;99.90;;;;;;5114232;28;20079;-89
2020/12/19 08:17:23;;;;;;;1999.90;999.90;;;7.50;99.90;;;;;;5113977;28;20052;-89
2020/12/19 08:19:53;;;;;;;1999.90;999.90;;;7.50;99.90;;;;;;5114266;28;20431;-89
2020/12/19 08:22:21;;;;;;;1999.90;999.90;;;7.60;99.90;;;;;;5113985;28;20151;-88
2020/12/19 08:24:59;;;;;;;1999.90;999.90;;;7.60;99.90;;;;;;5106487;28;20048;-89
2020/12/19 08:27:43;;;;;;;1999.90;999.90;;;7.60;99.90;;;;;;5108737;28;20067;-89
2020/12/19 08:30:19;;;;;;;1999.90;999.90;;;7.60;99.90;;;;;;5111998;28;20547;-89
2020/12/19 08:32:50;;;;;;;1999.90;999.90;;;7.70;99.90;;;;;;5114349;28;21484;-89
2020/12/19 08:35:22;;;;;;;1999.90;999.90;;;7.70;99.90;;;;;;5114081;28;20048;-89
2020/12/19 08:37:50;;;;;;;1999.90;999.90;;;7.70;99.90;;;;;;5113712;28;20040;-89
2020/12/19 08:40:20;;;;;;;1999.90;999.90;;;7.80;99.90;;;;;;5113717;28;20127;-88
2020/12/19 08:42:49;;;;;;;1999.90;999.90;;;7.80;99.90;;;;;;5113450;28;20101;-88
2020/12/19 08:45:26;;;;;;;1999.90;999.90;;;7.90;99.90;;;;;;5113338;28;20123;-88
2020/12/19 08:47:58;;;;;;;1999.90;999.90;;;7.90;99.90;;;;;;5113767;28;20047;-89
2020/12/19 08:50:31;;;;;;;1999.90;999.90;;;7.90;99.90;;;;;;5101299;28;20058;-89
2020/12/19 08:53:17;;;;;;;1999.90;999.90;;;7.90;99.90;;;;;;5110747;28;20150;-89
2020/12/19 08:55:46;;;;;;;1999.90;999.90;;;7.90;99.90;;;;;;5111322;28;20116;-89
2020/12/19 08:58:23;;;;;;;1999.90;999.90;;;8.00;99.90;;;;;;5113153;28;20042;-88
2020/12/19 09:00:51;;;;;;;1999.90;999.90;;;8.00;99.90;;;;;;5111435;28;20117;-88
2020/12/19 09:03:26;;;;;;;1999.90;999.90;;;8.10;99.90;;;;;;5113329;28;20044;-89
2020/12/19 09:06:02;;;;;;;1999.90;999.90;;;8.10;99.90;;;;;;5112749;28;20047;-89
2020/12/19 09:08:34;;;;;;;1999.90;999.90;;;8.20;99.90;;;;;;5112986;28;20513;-89
2020/12/19 09:11:03;;;;;;;1999.90;999.90;;;8.30;99.90;;;;;;5111912;28;20116;-88
2020/12/19 09:13:31;;;;;;;1999.90;999.90;;;8.30;99.90;;;;;;5109385;28;20052;-89
2020/12/19 09:16:05;;;;;;;1999.90;999.90;;;8.40;99.90;;;;;;5113069;27;20043;-88
2020/12/19 09:18:33;;;;;;;1999.90;999.90;;;8.40;99.90;;;;;;5117935;27;20048;-88
2020/12/19 09:21:02;;;;;;;1999.90;999.90;;;8.50;99.90;;;;;;5113228;28;20097;-88
2020/12/19 09:23:30;;;;;;;1999.90;999.90;;;8.50;99.90;;;;;;5117656;28;20074;-89
2020/12/19 09:26:01;;;;;;;1999.90;999.90;;;8.60;99.90;;;;;;5112802;28;20521;-88
2020/12/19 09:28:29;;;;;;;1999.90;999.90;;;8.60;99.90;;;;;;5113073;28;20099;-89
2020/12/19 09:30:57;;;;;;;1999.90;999.90;;;8.70;99.90;;;;;;5113565;28;20558;-89
2020/12/19 09:33:28;;;;;;;1999.90;999.90;;;8.70;99.90;;;;;;5113039;28;20468;-89
2020/12/19 09:35:57;;;;;;;1999.90;999.90;;;8.80;99.90;;;;;;5121107;28;20058;-89
2020/12/19 09:38:26;;;;;;;1999.90;999.90;;;8.80;99.90;;;;;;5113287;28;20415;-88
2020/12/19 09:40:53;;;;;;;1999.90;999.90;;;8.90;99.90;;;;;;5107814;28;20489;-89
2020/12/19 09:43:20;;;;;;;1999.90;999.90;;;8.90;99.90;;;;;;5110718;28;20087;-88
2020/12/19 09:45:48;;;;;;;1999.90;999.90;;;8.90;99.90;;;;;;5116201;28;20072;-89
2020/12/19 09:48:15;;;;;;;1999.90;999.90;;;9.00;99.90;;;;;;5119593;28;20721;-89
2020/12/19 09:50:42;;;;;;;1999.90;999.90;;;9.00;99.90;;;;;;5123068;28;20044;-89
2020/12/19 09:53:10;;;;;;;1999.90;999.90;;;9.10;99.90;;;;;;5118008;28;20044;-89
2020/12/19 09:55:37;;;;;;;1999.90;999.90;;;9.10;99.90;;;;;;5117272;28;20104;-90
2020/12/19 09:58:04;;;;;;;1999.90;999.90;;;9.20;99.90;;;;;;5117243;28;20435;-90
2020/12/19 10:00:32;;;;;;;1999.90;999.90;;;9.20;99.90;;;;;;5117013;28;20055;-90
2020/12/19 10:03:00;;;;;;;1999.90;999.90;;;9.20;99.90;;;;;;5117095;28;20780;-90
2020/12/19 10:05:28;;;;;;;1999.90;999.90;;;9.20;99.90;;;;;;5116616;28;20056;-89
2020/12/19 10:07:57;;;;;;;1999.90;999.90;;;9.30;99.90;;;;;;5109199;28;20159;-89
2020/12/19 10:10:44;;;;;;;1999.90;999.90;;;9.30;99.90;;;;;;5111355;28;20097;-88
2020/12/19 10:13:13;;;;;;;1999.90;999.90;;;9.40;99.90;;;;;;5116236;28;20056;-88
2020/12/19 10:15:40;;;;;;;1999.90;999.90;;;9.40;99.90;;;;;;5116167;28;20051;-87
2020/12/19 10:18:09;;;;;;;1999.90;999.90;;;9.40;99.90;;;;;;5117245;28;20051;-88
2020/12/19 10:20:37;;;;;;;1999.90;999.90;;;9.40;99.90;;;;;;5116791;28;20056;-89
2020/12/19 10:23:04;;;;;;;1999.90;999.90;;;9.50;99.90;;;;;;5117172;28;20079;-88
2020/12/19 10:25:31;;;;;;;1999.90;999.90;;;9.50;99.90;;;;;;5116807;28;20079;-89
2020/12/19 10:27:58;;;;;;;1999.90;999.90;;;9.60;99.90;;;;;;5116527;28;20071;-88
2020/12/19 10:30:25;;;;;;;1999.90;999.90;;;9.60;99.90;;;;;;5116892;28;20124;-88
2020/12/19 10:32:52;;;;;;;1999.90;999.90;;;9.60;99.90;;;;;;5116176;28;20047;-89
2020/12/19 10:35:20;;;;;;;1999.90;999.90;;;9.60;99.90;;;;;;5115906;28;20050;-89
2020/12/19 10:37:48;;;;;;;1999.90;999.90;;;9.60;99.90;;;;;;5116258;27;20126;-89
2020/12/19 10:40:15;;;;;;;1999.90;999.90;;;9.60;99.90;;;;;;5117344;28;20062;-89
2020/12/19 10:42:43;;;;;;;1999.90;999.90;;;9.70;99.90;;;;;;5116442;28;20086;-89
2020/12/19 10:45:10;;;;;;;1999.90;999.90;;;9.70;99.90;;;;;;5115912;28;20067;-89
2020/12/19 10:47:37;;;;;;;1999.90;999.90;;;9.70;99.90;;;;;;5115946;28;20104;-89
2020/12/19 10:50:04;;;;;;;1999.90;999.90;;;9.80;99.90;;;;;;5116270;28;20459;-89
2020/12/19 10:52:34;;;;;;;1999.90;999.90;;;9.80;99.90;;;;;;5116161;28;20083;-89
2020/12/19 10:55:02;;;;;;;1999.90;999.90;;;9.80;99.90;;;;;;5116419;28;20134;-89
2020/12/19 10:57:29;;;;;;;1999.90;999.90;;;9.80;99.90;;;;;;5116577;27;20055;-89
2020/12/19 10:59:56;;;;;;;1999.90;999.90;;;9.90;99.90;;;;;;5110638;28;20135;-89
2020/12/19 11:02:23;;;;;;;1999.90;999.90;;;9.90;99.90;;;;;;5116134;28;20052;-88
2020/12/19 11:04:50;;;;;;;1999.90;999.90;;;9.90;99.90;;;;;;5122309;27;20079;-89
2020/12/19 11:07:17;;;;;;;1999.90;999.90;;;9.90;99.90;;;;;;5120861;27;20105;-89
2020/12/19 11:09:45;;;;;;;1999.90;999.90;;;10.00;99.90;;;;;;5116432;28;20047;-89
2020/12/19 11:12:13;;;;;;;1999.90;999.90;;;10.00;99.90;;;;;;5116370;28;20055;-89
2020/12/19 11:14:40;;;;;;;1999.90;999.90;;;10.00;99.90;;;;;;5115459;28;20082;-89
2020/12/19 11:17:07;;;;;;;1999.90;999.90;;;10.10;99.90;;;;;;5116492;28;20098;-89
2020/12/19 11:19:36;;;;;;;1999.90;999.90;;;10.10;99.90;;;;;;5102003;28;20113;-89
2020/12/19 11:22:03;;;;;;;1999.90;999.90;;;10.10;99.90;;;;;;5103855;28;20052;-88
2020/12/19 11:24:31;;;;;;;1999.90;999.90;;;10.20;99.90;;;;;;5114686;28;20059;-89
2020/12/19 11:26:59;;;;;;;1999.90;999.90;;;10.20;99.90;;;;;;5115867;28;20043;-89
2020/12/19 11:29:26;;;;;;;1999.90;999.90;;;10.30;99.90;;;;;;5115365;28;20926;-90
2020/12/19 11:31:53;;;;;;;1999.90;999.90;;;10.40;99.90;;;;;;5113976;28;20051;-88
2020/12/19 11:34:20;;;;;;;1999.90;999.90;;;10.40;99.90;;;;;;5115003;28;20797;-89
2020/12/19 11:36:47;;;;;;;1999.90;999.90;;;10.40;99.90;;;;;;5106090;28;20132;-88
2020/12/19 11:39:15;;;;;;;1999.90;999.90;;;10.40;99.90;;;;;;5115515;28;20050;-89
2020/12/19 11:41:42;;;;;;;1999.90;999.90;;;10.40;99.90;;;;;;5114069;28;20048;-89
2020/12/19 11:44:12;;;;;;;1999.90;999.90;;;10.50;99.90;;;;;;5115018;28;20535;-88
2020/12/19 11:46:40;;;;;;;1999.90;999.90;;;10.50;99.90;;;;;;5113913;28;20086;-88
2020/12/19 11:49:07;;;;;;;1999.90;999.90;;;10.50;99.90;;;;;;5115479;28;20504;-89
2020/12/19 11:51:34;;;;;;;1999.90;999.90;;;10.50;99.90;;;;;;5114651;28;20090;-89
2020/12/19 11:54:02;;;;;;;1999.90;999.90;;;10.50;99.90;;;;;;5114258;27;20453;-89
2020/12/19 11:56:30;;;;;;;1999.90;999.90;;;10.60;99.90;;;;;;5115133;28;20048;-88
2020/12/19 11:58:58;;;;;;;1999.90;999.90;;;10.60;99.90;;;;;;5113084;28;20060;-89
2020/12/19 12:01:30;;;;;;;1999.90;999.90;;;10.60;99.90;;;;;;5115472;28;20048;-89
2020/12/19 12:03:57;;;;;;;1999.90;999.90;;;10.60;99.90;;;;;;5115228;27;20466;-89
2020/12/19 12:06:29;;;;;;;1999.90;999.90;;;10.70;99.90;;;;;;5109635;28;20070;-89
2020/12/19 12:08:57;;;;;;;1999.90;999.90;;;10.60;99.90;;;;;;5118865;27;20444;-89
2020/12/19 12:11:27;;;;;;;1999.90;999.90;;;10.60;99.90;;;;;;5107792;28;20115;-89
2020/12/19 12:13:55;;;;;;;1999.90;999.90;;;10.60;99.90;;;;;;5116903;28;20146;-90
2020/12/19 12:16:24;;;;;;;1999.90;999.90;;;10.60;99.90;;;;;;5113194;27;20379;-89